sensor_id;sensor_type;location;lat;lon;timestamp;P1;durP1;ratioP1;P2;durP2;ratioP2
7338;SDS011;33747;49.524;8.390;2024-01-15T00:00:40;26.90;;;13.38;;
7338;SDS011;33747;49.524;8.390;2024-01-15T00:03:05;30.85;;;13.52;;
7338;SDS011;33747;49.524;8.390;2024-01-15T00:05:31;29.02;;;12.57;;
7338;SDS011;33747;49.524;8.390;2024-01-15T00:07:56;28.98;;;13.38;;
7338;SDS011;33747;49.524;8.390;2024-01-15T00:10:22;35.28;;;14.82;;
7338;SDS011;33747;49.524;8.390;2024-01-15T00:12:48;33.65;;;13.70;;
7338;SDS011;33747;49.524;8.390;2024-01-15T00:15:13;28.85;;;13.02;;
7338;SDS011;33747;49.524;8.390;2024-01-15T00:17:39;35.85;;;15.10;;
7338;SDS011;33747;49.524;8.390;2024-01-15T00:20:04;31.13;;;14.23;;
7338;SDS011;33747;49.524;8.390;2024-01-15T00:22:30;34.60;;;13.75;;
7338;SDS011;33747;49.524;8.390;2024-01-15T00:24:56;34.17;;;12.45;;
7338;SDS011;33747;49.524;8.390;2024-01-15T00:27:22;32.53;;;14.13;;
7338;SDS011;33747;49.524;8.390;2024-01-15T00:29:47;32.80;;;11.95;;
7338;SDS011;33747;49.524;8.390;2024-01-15T00:32:13;32.47;;;13.80;;
7338;SDS011;33747;49.524;8.390;2024-01-15T00:34:38;32.72;;;14.02;;
7338;SDS011;33747;49.524;8.390;2024-01-15T00:37:03;30.60;;;13.43;;
7338;SDS011;33747;49.524;8.390;2024-01-15T00:39:31;28.35;;;14.05;;
7338;SDS011;33747;49.524;8.390;2024-01-15T00:41:57;35.97;;;14.75;;
7338;SDS011;33747;49.524;8.390;2024-01-15T00:44:22;36.13;;;14.18;;
7338;SDS011;33747;49.524;8.390;2024-01-15T00:46:48;34.53;;;13.55;;
7338;SDS011;33747;49.524;8.390;2024-01-15T00:49:13;33.05;;;13.68;;
7338;SDS011;33747;49.524;8.390;2024-01-15T00:51:39;35.60;;;14.70;;
7338;SDS011;33747;49.524;8.390;2024-01-15T00:54:04;31.50;;;13.65;;
7338;SDS011;33747;49.524;8.390;2024-01-15T00:56:30;43.65;;;15.77;;
7338;SDS011;33747;49.524;8.390;2024-01-15T00:58:55;28.80;;;12.00;;
7338;SDS011;33747;49.524;8.390;2024-01-15T01:01:21;30.05;;;13.38;;
7338;SDS011;33747;49.524;8.390;2024-01-15T01:03:46;33.03;;;14.02;;
7338;SDS011;33747;49.524;8.390;2024-01-15T01:06:11;31.20;;;13.35;;
7338;SDS011;33747;49.524;8.390;2024-01-15T01:08:37;36.25;;;13.63;;
7338;SDS011;33747;49.524;8.390;2024-01-15T01:11:03;34.50;;;14.20;;
7338;SDS011;33747;49.524;8.390;2024-01-15T01:13:28;31.48;;;13.90;;
7338;SDS011;33747;49.524;8.390;2024-01-15T01:15:54;31.48;;;13.98;;
7338;SDS011;33747;49.524;8.390;2024-01-15T01:18:19;32.08;;;13.55;;
7338;SDS011;33747;49.524;8.390;2024-01-15T01:20:44;30.00;;;12.98;;
7338;SDS011;33747;49.524;8.390;2024-01-15T01:23:10;30.75;;;13.15;;
7338;SDS011;33747;49.524;8.390;2024-01-15T01:25:35;30.92;;;11.95;;
7338;SDS011;33747;49.524;8.390;2024-01-15T01:28:00;35.10;;;14.05;;
7338;SDS011;33747;49.524;8.390;2024-01-15T01:30:26;30.98;;;13.20;;
7338;SDS011;33747;49.524;8.390;2024-01-15T01:32:51;31.00;;;12.98;;
7338;SDS011;33747;49.524;8.390;2024-01-15T01:35:17;33.53;;;14.18;;
7338;SDS011;33747;49.524;8.390;2024-01-15T01:37:42;37.90;;;14.18;;
7338;SDS011;33747;49.524;8.390;2024-01-15T01:40:07;35.65;;;14.48;;
7338;SDS011;33747;49.524;8.390;2024-01-15T01:42:33;34.88;;;14.13;;
7338;SDS011;33747;49.524;8.390;2024-01-15T01:44:58;27.48;;;12.60;;
7338;SDS011;33747;49.524;8.390;2024-01-15T01:47:24;33.92;;;14.55;;
7338;SDS011;33747;49.524;8.390;2024-01-15T01:49:51;31.80;;;13.35;;
7338;SDS011;33747;49.524;8.390;2024-01-15T01:52:17;29.27;;;13.02;;
7338;SDS011;33747;49.524;8.390;2024-01-15T01:54:42;32.58;;;12.80;;
7338;SDS011;33747;49.524;8.390;2024-01-15T01:57:08;34.22;;;14.85;;
7338;SDS011;33747;49.524;8.390;2024-01-15T01:59:34;31.88;;;14.25;;
7338;SDS011;33747;49.524;8.390;2024-01-15T02:02:00;30.65;;;12.85;;
7338;SDS011;33747;49.524;8.390;2024-01-15T02:04:26;29.92;;;11.80;;
7338;SDS011;33747;49.524;8.390;2024-01-15T02:06:51;36.08;;;13.43;;
7338;SDS011;33747;49.524;8.390;2024-01-15T02:09:20;32.70;;;13.88;;
7338;SDS011;33747;49.524;8.390;2024-01-15T02:11:48;37.85;;;12.60;;
7338;SDS011;33747;49.524;8.390;2024-01-15T02:14:14;32.78;;;14.10;;
7338;SDS011;33747;49.524;8.390;2024-01-15T02:16:39;35.90;;;13.60;;
7338;SDS011;33747;49.524;8.390;2024-01-15T02:19:05;33.78;;;12.98;;
7338;SDS011;33747;49.524;8.390;2024-01-15T02:21:31;30.58;;;12.52;;
7338;SDS011;33747;49.524;8.390;2024-01-15T02:23:57;29.65;;;12.27;;
7338;SDS011;33747;49.524;8.390;2024-01-15T02:26:22;27.27;;;11.50;;
7338;SDS011;33747;49.524;8.390;2024-01-15T02:28:48;36.67;;;13.35;;
7338;SDS011;33747;49.524;8.390;2024-01-15T02:31:14;33.95;;;12.80;;
7338;SDS011;33747;49.524;8.390;2024-01-15T02:33:39;27.52;;;10.75;;
7338;SDS011;33747;49.524;8.390;2024-01-15T02:36:05;30.80;;;12.80;;
7338;SDS011;33747;49.524;8.390;2024-01-15T02:38:30;31.45;;;11.85;;
7338;SDS011;33747;49.524;8.390;2024-01-15T02:40:56;30.23;;;12.43;;
7338;SDS011;33747;49.524;8.390;2024-01-15T02:43:21;33.47;;;11.43;;
7338;SDS011;33747;49.524;8.390;2024-01-15T02:45:46;31.08;;;11.35;;
7338;SDS011;33747;49.524;8.390;2024-01-15T02:48:12;35.00;;;13.05;;
7338;SDS011;33747;49.524;8.390;2024-01-15T02:50:37;34.15;;;13.30;;
7338;SDS011;33747;49.524;8.390;2024-01-15T02:53:03;33.83;;;12.35;;
7338;SDS011;33747;49.524;8.390;2024-01-15T02:55:28;27.88;;;11.85;;
7338;SDS011;33747;49.524;8.390;2024-01-15T02:57:56;28.27;;;11.75;;
7338;SDS011;33747;49.524;8.390;2024-01-15T03:00:21;32.17;;;12.15;;
7338;SDS011;33747;49.524;8.390;2024-01-15T03:02:47;29.20;;;13.07;;
7338;SDS011;33747;49.524;8.390;2024-01-15T03:05:13;28.98;;;13.07;;
7338;SDS011;33747;49.524;8.390;2024-01-15T03:07:38;32.75;;;12.75;;
7338;SDS011;33747;49.524;8.390;2024-01-15T03:10:04;29.30;;;11.05;;
7338;SDS011;33747;49.524;8.390;2024-01-15T03:12:31;26.67;;;11.85;;
7338;SDS011;33747;49.524;8.390;2024-01-15T03:14:56;26.83;;;10.82;;
7338;SDS011;33747;49.524;8.390;2024-01-15T03:17:22;30.73;;;11.18;;
7338;SDS011;33747;49.524;8.390;2024-01-15T03:19:47;30.50;;;11.98;;
7338;SDS011;33747;49.524;8.390;2024-01-15T03:22:14;30.00;;;12.57;;
7338;SDS011;33747;49.524;8.390;2024-01-15T03:24:40;31.83;;;12.82;;
7338;SDS011;33747;49.524;8.390;2024-01-15T03:27:05;33.03;;;12.50;;
7338;SDS011;33747;49.524;8.390;2024-01-15T03:29:30;24.67;;;11.15;;
7338;SDS011;33747;49.524;8.390;2024-01-15T03:31:56;30.67;;;12.77;;
7338;SDS011;33747;49.524;8.390;2024-01-15T03:34:21;33.13;;;12.18;;
7338;SDS011;33747;49.524;8.390;2024-01-15T03:36:47;30.15;;;12.32;;
7338;SDS011;33747;49.524;8.390;2024-01-15T03:39:12;34.65;;;13.27;;
7338;SDS011;33747;49.524;8.390;2024-01-15T03:41:37;27.25;;;11.68;;
7338;SDS011;33747;49.524;8.390;2024-01-15T03:44:03;29.73;;;11.93;;
7338;SDS011;33747;49.524;8.390;2024-01-15T03:46:28;30.58;;;11.63;;
7338;SDS011;33747;49.524;8.390;2024-01-15T03:48:54;25.48;;;10.27;;
7338;SDS011;33747;49.524;8.390;2024-01-15T03:51:19;25.63;;;12.48;;
7338;SDS011;33747;49.524;8.390;2024-01-15T03:53:45;25.67;;;11.95;;
7338;SDS011;33747;49.524;8.390;2024-01-15T03:56:10;29.35;;;11.68;;
7338;SDS011;33747;49.524;8.390;2024-01-15T03:58:36;31.20;;;12.05;;
7338;SDS011;33747;49.524;8.390;2024-01-15T04:01:01;29.92;;;13.55;;
7338;SDS011;33747;49.524;8.390;2024-01-15T04:03:26;25.00;;;11.20;;
7338;SDS011;33747;49.524;8.390;2024-01-15T04:05:52;22.48;;;10.25;;
7338;SDS011;33747;49.524;8.390;2024-01-15T04:08:17;26.40;;;11.40;;
7338;SDS011;33747;49.524;8.390;2024-01-15T04:10:42;29.20;;;11.88;;
7338;SDS011;33747;49.524;8.390;2024-01-15T04:13:08;30.67;;;12.93;;
7338;SDS011;33747;49.524;8.390;2024-01-15T04:15:33;27.13;;;11.57;;
7338;SDS011;33747;49.524;8.390;2024-01-15T04:17:59;32.35;;;12.95;;
7338;SDS011;33747;49.524;8.390;2024-01-15T04:20:26;30.83;;;12.20;;
7338;SDS011;33747;49.524;8.390;2024-01-15T04:22:51;25.85;;;11.68;;
7338;SDS011;33747;49.524;8.390;2024-01-15T04:25:17;30.38;;;12.07;;
7338;SDS011;33747;49.524;8.390;2024-01-15T04:27:42;30.75;;;12.80;;
7338;SDS011;33747;49.524;8.390;2024-01-15T04:30:08;26.45;;;12.27;;
7338;SDS011;33747;49.524;8.390;2024-01-15T04:32:33;30.00;;;12.50;;
7338;SDS011;33747;49.524;8.390;2024-01-15T04:34:58;27.65;;;11.90;;
7338;SDS011;33747;49.524;8.390;2024-01-15T04:37:24;39.08;;;14.50;;
7338;SDS011;33747;49.524;8.390;2024-01-15T04:39:49;28.63;;;12.80;;
7338;SDS011;33747;49.524;8.390;2024-01-15T04:42:17;30.60;;;12.38;;
7338;SDS011;33747;49.524;8.390;2024-01-15T04:44:43;26.30;;;11.25;;
7338;SDS011;33747;49.524;8.390;2024-01-15T04:47:08;25.20;;;11.85;;
7338;SDS011;33747;49.524;8.390;2024-01-15T04:49:34;28.13;;;13.23;;
7338;SDS011;33747;49.524;8.390;2024-01-15T04:51:59;31.02;;;11.45;;
7338;SDS011;33747;49.524;8.390;2024-01-15T04:54:24;26.67;;;11.80;;
7338;SDS011;33747;49.524;8.390;2024-01-15T04:56:50;26.83;;;11.20;;
7338;SDS011;33747;49.524;8.390;2024-01-15T04:59:15;27.30;;;11.02;;
7338;SDS011;33747;49.524;8.390;2024-01-15T05:01:41;25.08;;;10.55;;
7338;SDS011;33747;49.524;8.390;2024-01-15T05:04:06;22.60;;;9.93;;
7338;SDS011;33747;49.524;8.390;2024-01-15T05:06:32;30.52;;;11.45;;
7338;SDS011;33747;49.524;8.390;2024-01-15T05:08:57;21.80;;;10.05;;
7338;SDS011;33747;49.524;8.390;2024-01-15T05:11:22;25.15;;;11.10;;
7338;SDS011;33747;49.524;8.390;2024-01-15T05:13:48;24.05;;;11.05;;
7338;SDS011;33747;49.524;8.390;2024-01-15T05:16:13;22.63;;;10.52;;
7338;SDS011;33747;49.524;8.390;2024-01-15T05:18:38;28.70;;;11.82;;
7338;SDS011;33747;49.524;8.390;2024-01-15T05:21:04;27.30;;;11.38;;
7338;SDS011;33747;49.524;8.390;2024-01-15T05:23:30;19.85;;;9.85;;
7338;SDS011;33747;49.524;8.390;2024-01-15T05:25:56;27.98;;;11.45;;
7338;SDS011;33747;49.524;8.390;2024-01-15T05:28:22;24.88;;;10.27;;
7338;SDS011;33747;49.524;8.390;2024-01-15T05:30:47;27.73;;;11.88;;
7338;SDS011;33747;49.524;8.390;2024-01-15T05:33:13;26.50;;;11.50;;
7338;SDS011;33747;49.524;8.390;2024-01-15T05:35:38;25.60;;;11.98;;
7338;SDS011;33747;49.524;8.390;2024-01-15T05:38:04;28.27;;;12.88;;
7338;SDS011;33747;49.524;8.390;2024-01-15T05:40:29;29.55;;;11.93;;
7338;SDS011;33747;49.524;8.390;2024-01-15T05:42:54;21.70;;;11.15;;
7338;SDS011;33747;49.524;8.390;2024-01-15T05:45:20;27.88;;;10.90;;
7338;SDS011;33747;49.524;8.390;2024-01-15T05:47:45;19.55;;;9.65;;
7338;SDS011;33747;49.524;8.390;2024-01-15T05:50:10;22.48;;;9.40;;
7338;SDS011;33747;49.524;8.390;2024-01-15T05:52:36;27.55;;;10.70;;
7338;SDS011;33747;49.524;8.390;2024-01-15T05:55:02;17.45;;;9.00;;
7338;SDS011;33747;49.524;8.390;2024-01-15T05:57:27;23.38;;;10.55;;
7338;SDS011;33747;49.524;8.390;2024-01-15T05:59:53;22.92;;;9.57;;
7338;SDS011;33747;49.524;8.390;2024-01-15T06:02:18;23.45;;;10.60;;
7338;SDS011;33747;49.524;8.390;2024-01-15T06:04:44;20.42;;;9.70;;
7338;SDS011;33747;49.524;8.390;2024-01-15T06:07:09;22.15;;;9.77;;
7338;SDS011;33747;49.524;8.390;2024-01-15T06:09:35;22.75;;;9.32;;
7338;SDS011;33747;49.524;8.390;2024-01-15T06:12:00;21.40;;;10.45;;
7338;SDS011;33747;49.524;8.390;2024-01-15T06:14:25;23.92;;;10.05;;
7338;SDS011;33747;49.524;8.390;2024-01-15T06:16:51;22.38;;;10.40;;
7338;SDS011;33747;49.524;8.390;2024-01-15T06:19:17;20.08;;;9.80;;
7338;SDS011;33747;49.524;8.390;2024-01-15T06:21:42;20.40;;;9.05;;
7338;SDS011;33747;49.524;8.390;2024-01-15T06:24:08;21.25;;;9.95;;
7338;SDS011;33747;49.524;8.390;2024-01-15T06:26:35;22.00;;;11.00;;
7338;SDS011;33747;49.524;8.390;2024-01-15T06:29:00;24.05;;;10.07;;
7338;SDS011;33747;49.524;8.390;2024-01-15T06:31:25;17.67;;;9.20;;
7338;SDS011;33747;49.524;8.390;2024-01-15T06:33:51;22.25;;;10.45;;
7338;SDS011;33747;49.524;8.390;2024-01-15T06:36:16;20.75;;;10.13;;
7338;SDS011;33747;49.524;8.390;2024-01-15T06:38:43;20.17;;;10.20;;
7338;SDS011;33747;49.524;8.390;2024-01-15T06:41:09;20.50;;;9.55;;
7338;SDS011;33747;49.524;8.390;2024-01-15T06:43:35;19.35;;;8.88;;
7338;SDS011;33747;49.524;8.390;2024-01-15T06:46:01;19.00;;;9.88;;
7338;SDS011;33747;49.524;8.390;2024-01-15T06:48:26;20.88;;;10.98;;
7338;SDS011;33747;49.524;8.390;2024-01-15T06:50:52;23.67;;;10.68;;
7338;SDS011;33747;49.524;8.390;2024-01-15T06:53:17;24.17;;;11.43;;
7338;SDS011;33747;49.524;8.390;2024-01-15T06:55:42;22.60;;;10.05;;
7338;SDS011;33747;49.524;8.390;2024-01-15T06:58:08;19.02;;;10.05;;
7338;SDS011;33747;49.524;8.390;2024-01-15T07:00:33;21.38;;;10.82;;
7338;SDS011;33747;49.524;8.390;2024-01-15T07:02:59;24.73;;;11.68;;
7338;SDS011;33747;49.524;8.390;2024-01-15T07:05:24;24.67;;;11.63;;
7338;SDS011;33747;49.524;8.390;2024-01-15T07:07:49;25.63;;;11.23;;
7338;SDS011;33747;49.524;8.390;2024-01-15T07:10:16;25.95;;;12.20;;
7338;SDS011;33747;49.524;8.390;2024-01-15T07:12:42;30.58;;;14.07;;
7338;SDS011;33747;49.524;8.390;2024-01-15T07:15:08;34.38;;;14.85;;
7338;SDS011;33747;49.524;8.390;2024-01-15T07:17:33;34.47;;;16.10;;
7338;SDS011;33747;49.524;8.390;2024-01-15T07:19:59;44.58;;;18.67;;
7338;SDS011;33747;49.524;8.390;2024-01-15T07:22:25;31.67;;;14.23;;
7338;SDS011;33747;49.524;8.390;2024-01-15T07:24:50;22.48;;;12.00;;
7338;SDS011;33747;49.524;8.390;2024-01-15T07:27:15;26.27;;;11.88;;
7338;SDS011;33747;49.524;8.390;2024-01-15T07:29:41;31.35;;;14.27;;
7338;SDS011;33747;49.524;8.390;2024-01-15T07:32:07;23.90;;;12.40;;
7338;SDS011;33747;49.524;8.390;2024-01-15T07:34:33;23.73;;;12.25;;
7338;SDS011;33747;49.524;8.390;2024-01-15T07:36:58;26.50;;;11.43;;
7338;SDS011;33747;49.524;8.390;2024-01-15T07:39:23;24.88;;;11.95;;
7338;SDS011;33747;49.524;8.390;2024-01-15T07:41:50;30.55;;;12.23;;
7338;SDS011;33747;49.524;8.390;2024-01-15T07:44:16;26.75;;;12.18;;
7338;SDS011;33747;49.524;8.390;2024-01-15T07:46:44;25.77;;;10.52;;
7338;SDS011;33747;49.524;8.390;2024-01-15T07:49:10;26.95;;;11.63;;
7338;SDS011;33747;49.524;8.390;2024-01-15T07:51:36;20.50;;;10.68;;
7338;SDS011;33747;49.524;8.390;2024-01-15T07:54:01;21.92;;;11.18;;
7338;SDS011;33747;49.524;8.390;2024-01-15T07:56:27;25.95;;;12.10;;
7338;SDS011;33747;49.524;8.390;2024-01-15T07:58:52;24.83;;;12.48;;
7338;SDS011;33747;49.524;8.390;2024-01-15T08:01:18;19.55;;;11.10;;
7338;SDS011;33747;49.524;8.390;2024-01-15T08:03:43;25.55;;;11.15;;
7338;SDS011;33747;49.524;8.390;2024-01-15T08:06:08;26.13;;;11.32;;
7338;SDS011;33747;49.524;8.390;2024-01-15T08:08:34;23.05;;;11.77;;
7338;SDS011;33747;49.524;8.390;2024-01-15T08:11:00;21.60;;;11.13;;
7338;SDS011;33747;49.524;8.390;2024-01-15T08:13:26;23.98;;;11.88;;
7338;SDS011;33747;49.524;8.390;2024-01-15T08:15:51;19.60;;;11.38;;
7338;SDS011;33747;49.524;8.390;2024-01-15T08:18:17;23.95;;;11.77;;
7338;SDS011;33747;49.524;8.390;2024-01-15T08:20:42;25.25;;;12.02;;
7338;SDS011;33747;49.524;8.390;2024-01-15T08:23:07;25.52;;;11.82;;
7338;SDS011;33747;49.524;8.390;2024-01-15T08:25:33;23.38;;;11.63;;
7338;SDS011;33747;49.524;8.390;2024-01-15T08:27:59;23.75;;;12.68;;
7338;SDS011;33747;49.524;8.390;2024-01-15T08:30:24;26.40;;;12.77;;
7338;SDS011;33747;49.524;8.390;2024-01-15T08:32:52;23.35;;;12.27;;
7338;SDS011;33747;49.524;8.390;2024-01-15T08:35:18;26.10;;;13.63;;
7338;SDS011;33747;49.524;8.390;2024-01-15T08:37:47;26.00;;;12.60;;
7338;SDS011;33747;49.524;8.390;2024-01-15T08:40:16;23.80;;;13.02;;
7338;SDS011;33747;49.524;8.390;2024-01-15T08:42:41;28.35;;;12.80;;
7338;SDS011;33747;49.524;8.390;2024-01-15T08:45:08;27.45;;;13.00;;
7338;SDS011;33747;49.524;8.390;2024-01-15T08:47:34;26.65;;;12.27;;
7338;SDS011;33747;49.524;8.390;2024-01-15T08:49:59;25.58;;;12.85;;
7338;SDS011;33747;49.524;8.390;2024-01-15T08:52:25;26.10;;;12.65;;
7338;SDS011;33747;49.524;8.390;2024-01-15T08:54:50;26.70;;;12.43;;
7338;SDS011;33747;49.524;8.390;2024-01-15T08:57:15;24.17;;;12.93;;
7338;SDS011;33747;49.524;8.390;2024-01-15T08:59:41;20.77;;;12.00;;
7338;SDS011;33747;49.524;8.390;2024-01-15T09:02:06;23.05;;;11.70;;
7338;SDS011;33747;49.524;8.390;2024-01-15T09:04:32;19.42;;;10.85;;
7338;SDS011;33747;49.524;8.390;2024-01-15T09:06:58;22.42;;;10.52;;
7338;SDS011;33747;49.524;8.390;2024-01-15T09:09:23;25.52;;;13.43;;
7338;SDS011;33747;49.524;8.390;2024-01-15T09:11:49;21.00;;;10.27;;
7338;SDS011;33747;49.524;8.390;2024-01-15T09:14:15;16.98;;;10.70;;
7338;SDS011;33747;49.524;8.390;2024-01-15T09:16:40;18.88;;;10.13;;
7338;SDS011;33747;49.524;8.390;2024-01-15T09:19:05;16.52;;;10.43;;
7338;SDS011;33747;49.524;8.390;2024-01-15T09:21:31;24.42;;;11.68;;
7338;SDS011;33747;49.524;8.390;2024-01-15T09:23:56;19.20;;;10.77;;
7338;SDS011;33747;49.524;8.390;2024-01-15T09:26:23;18.02;;;11.32;;
7338;SDS011;33747;49.524;8.390;2024-01-15T09:28:48;29.25;;;11.70;;
7338;SDS011;33747;49.524;8.390;2024-01-15T09:31:14;17.48;;;9.98;;
7338;SDS011;33747;49.524;8.390;2024-01-15T09:33:39;20.30;;;11.02;;
7338;SDS011;33747;49.524;8.390;2024-01-15T09:36:05;22.98;;;9.45;;
7338;SDS011;33747;49.524;8.390;2024-01-15T09:38:30;18.40;;;10.52;;
7338;SDS011;33747;49.524;8.390;2024-01-15T09:40:56;21.98;;;10.50;;
7338;SDS011;33747;49.524;8.390;2024-01-15T09:43:22;20.05;;;10.38;;
7338;SDS011;33747;49.524;8.390;2024-01-15T09:45:47;21.05;;;9.68;;
7338;SDS011;33747;49.524;8.390;2024-01-15T09:48:14;20.70;;;11.45;;
7338;SDS011;33747;49.524;8.390;2024-01-15T09:50:40;14.35;;;8.88;;
7338;SDS011;33747;49.524;8.390;2024-01-15T09:53:05;17.25;;;9.02;;
7338;SDS011;33747;49.524;8.390;2024-01-15T09:55:30;18.63;;;10.52;;
7338;SDS011;33747;49.524;8.390;2024-01-15T09:57:57;18.58;;;12.05;;
7338;SDS011;33747;49.524;8.390;2024-01-15T10:00:24;18.77;;;10.90;;
7338;SDS011;33747;49.524;8.390;2024-01-15T10:02:50;20.85;;;10.77;;
7338;SDS011;33747;49.524;8.390;2024-01-15T10:05:16;20.88;;;11.23;;
7338;SDS011;33747;49.524;8.390;2024-01-15T10:07:41;23.40;;;13.00;;
7338;SDS011;33747;49.524;8.390;2024-01-15T10:10:07;21.92;;;11.85;;
7338;SDS011;33747;49.524;8.390;2024-01-15T10:12:32;15.68;;;8.98;;
7338;SDS011;33747;49.524;8.390;2024-01-15T10:14:58;21.00;;;10.57;;
7338;SDS011;33747;49.524;8.390;2024-01-15T10:17:24;15.88;;;9.10;;
7338;SDS011;33747;49.524;8.390;2024-01-15T10:19:50;12.95;;;8.43;;
7338;SDS011;33747;49.524;8.390;2024-01-15T10:22:16;17.13;;;9.23;;
7338;SDS011;33747;49.524;8.390;2024-01-15T10:24:42;15.55;;;9.05;;
7338;SDS011;33747;49.524;8.390;2024-01-15T10:27:09;16.75;;;9.98;;
7338;SDS011;33747;49.524;8.390;2024-01-15T10:29:35;14.98;;;9.30;;
7338;SDS011;33747;49.524;8.390;2024-01-15T10:32:01;16.02;;;9.77;;
7338;SDS011;33747;49.524;8.390;2024-01-15T10:34:27;19.38;;;10.07;;
7338;SDS011;33747;49.524;8.390;2024-01-15T10:36:53;15.30;;;9.32;;
7338;SDS011;33747;49.524;8.390;2024-01-15T10:39:23;16.92;;;10.13;;
7338;SDS011;33747;49.524;8.390;2024-01-15T10:41:49;15.02;;;8.57;;
7338;SDS011;33747;49.524;8.390;2024-01-15T10:44:18;15.35;;;9.10;;
7338;SDS011;33747;49.524;8.390;2024-01-15T10:46:44;16.42;;;9.23;;
7338;SDS011;33747;49.524;8.390;2024-01-15T10:49:10;11.68;;;7.40;;
7338;SDS011;33747;49.524;8.390;2024-01-15T10:51:36;22.20;;;11.20;;
7338;SDS011;33747;49.524;8.390;2024-01-15T10:54:02;16.00;;;9.30;;
7338;SDS011;33747;49.524;8.390;2024-01-15T10:56:28;16.77;;;8.68;;
7338;SDS011;33747;49.524;8.390;2024-01-15T10:58:55;16.02;;;9.60;;
7338;SDS011;33747;49.524;8.390;2024-01-15T11:01:21;16.33;;;8.85;;
7338;SDS011;33747;49.524;8.390;2024-01-15T11:03:47;12.35;;;7.93;;
7338;SDS011;33747;49.524;8.390;2024-01-15T11:06:16;11.23;;;6.97;;
7338;SDS011;33747;49.524;8.390;2024-01-15T11:08:48;13.60;;;8.18;;
7338;SDS011;33747;49.524;8.390;2024-01-15T11:11:15;12.27;;;7.80;;
7338;SDS011;33747;49.524;8.390;2024-01-15T11:13:41;11.93;;;7.10;;
7338;SDS011;33747;49.524;8.390;2024-01-15T11:16:10;13.85;;;8.20;;
7338;SDS011;33747;49.524;8.390;2024-01-15T11:18:40;11.63;;;7.63;;
7338;SDS011;33747;49.524;8.390;2024-01-15T11:23:47;14.40;;;8.00;;
7338;SDS011;33747;49.524;8.390;2024-01-15T11:28:55;11.13;;;7.35;;
7338;SDS011;33747;49.524;8.390;2024-01-15T11:31:56;13.13;;;7.70;;
7338;SDS011;33747;49.524;8.390;2024-01-15T11:34:12;11.27;;;7.07;;
7338;SDS011;33747;49.524;8.390;2024-01-15T11:37:20;12.73;;;7.97;;
7338;SDS011;33747;49.524;8.390;2024-01-15T11:41:56;13.38;;;8.40;;
7338;SDS011;33747;49.524;8.390;2024-01-15T11:44:30;11.70;;;8.52;;
7338;SDS011;33747;49.524;8.390;2024-01-15T11:52:18;11.95;;;7.43;;
7338;SDS011;33747;49.524;8.390;2024-01-15T11:57:50;13.32;;;8.48;;
7338;SDS011;33747;49.524;8.390;2024-01-15T12:00:19;13.27;;;8.45;;
7338;SDS011;33747;49.524;8.390;2024-01-15T12:02:46;12.57;;;8.15;;
7338;SDS011;33747;49.524;8.390;2024-01-15T12:05:12;13.85;;;8.02;;
7338;SDS011;33747;49.524;8.390;2024-01-15T12:07:40;14.75;;;8.45;;
7338;SDS011;33747;49.524;8.390;2024-01-15T12:10:12;16.38;;;8.90;;
7338;SDS011;33747;49.524;8.390;2024-01-15T12:15:33;18.33;;;9.73;;
7338;SDS011;33747;49.524;8.390;2024-01-15T12:17:59;15.90;;;8.85;;
7338;SDS011;33747;49.524;8.390;2024-01-15T12:20:27;14.35;;;8.20;;
7338;SDS011;33747;49.524;8.390;2024-01-15T12:22:52;13.63;;;7.95;;
7338;SDS011;33747;49.524;8.390;2024-01-15T12:25:18;14.63;;;8.82;;
7338;SDS011;33747;49.524;8.390;2024-01-15T12:27:43;13.55;;;8.57;;
7338;SDS011;33747;49.524;8.390;2024-01-15T12:30:13;10.73;;;7.70;;
7338;SDS011;33747;49.524;8.390;2024-01-15T12:32:40;12.88;;;8.07;;
7338;SDS011;33747;49.524;8.390;2024-01-15T12:35:06;13.30;;;8.15;;
7338;SDS011;33747;49.524;8.390;2024-01-15T12:37:32;15.25;;;9.15;;
7338;SDS011;33747;49.524;8.390;2024-01-15T12:39:58;14.98;;;8.88;;
7338;SDS011;33747;49.524;8.390;2024-01-15T12:42:24;14.50;;;7.97;;
7338;SDS011;33747;49.524;8.390;2024-01-15T12:44:49;15.35;;;10.50;;
7338;SDS011;33747;49.524;8.390;2024-01-15T12:47:14;14.15;;;9.30;;
7338;SDS011;33747;49.524;8.390;2024-01-15T12:49:42;16.75;;;8.70;;
7338;SDS011;33747;49.524;8.390;2024-01-15T12:52:11;13.38;;;8.32;;
7338;SDS011;33747;49.524;8.390;2024-01-15T12:54:36;12.43;;;8.05;;
7338;SDS011;33747;49.524;8.390;2024-01-15T12:57:02;16.75;;;8.57;;
7338;SDS011;33747;49.524;8.390;2024-01-15T12:59:27;12.18;;;7.65;;
7338;SDS011;33747;49.524;8.390;2024-01-15T13:01:53;12.77;;;8.43;;
7338;SDS011;33747;49.524;8.390;2024-01-15T13:04:21;14.23;;;8.18;;
7338;SDS011;33747;49.524;8.390;2024-01-15T13:06:48;11.80;;;7.88;;
7338;SDS011;33747;49.524;8.390;2024-01-15T13:09:14;14.05;;;8.45;;
7338;SDS011;33747;49.524;8.390;2024-01-15T13:11:40;13.35;;;8.07;;
7338;SDS011;33747;49.524;8.390;2024-01-15T13:14:05;13.60;;;8.15;;
7338;SDS011;33747;49.524;8.390;2024-01-15T13:16:31;13.32;;;8.38;;
7338;SDS011;33747;49.524;8.390;2024-01-15T13:18:56;10.50;;;7.18;;
7338;SDS011;33747;49.524;8.390;2024-01-15T13:21:22;16.23;;;8.43;;
7338;SDS011;33747;49.524;8.390;2024-01-15T13:23:47;14.35;;;8.00;;
7338;SDS011;33747;49.524;8.390;2024-01-15T13:26:13;12.30;;;7.88;;
7338;SDS011;33747;49.524;8.390;2024-01-15T13:28:39;12.98;;;8.23;;
7338;SDS011;33747;49.524;8.390;2024-01-15T13:31:04;12.35;;;8.00;;
7338;SDS011;33747;49.524;8.390;2024-01-15T13:33:30;16.58;;;8.35;;
7338;SDS011;33747;49.524;8.390;2024-01-15T13:35:55;13.85;;;8.13;;
7338;SDS011;33747;49.524;8.390;2024-01-15T13:38:20;9.68;;;6.82;;
7338;SDS011;33747;49.524;8.390;2024-01-15T13:40:46;13.27;;;7.30;;
7338;SDS011;33747;49.524;8.390;2024-01-15T13:43:11;12.65;;;7.28;;
7338;SDS011;33747;49.524;8.390;2024-01-15T13:45:39;11.73;;;6.85;;
7338;SDS011;33747;49.524;8.390;2024-01-15T13:48:04;12.35;;;7.57;;
7338;SDS011;33747;49.524;8.390;2024-01-15T13:50:36;11.63;;;7.28;;
7338;SDS011;33747;49.524;8.390;2024-01-15T13:53:02;11.63;;;7.47;;
7338;SDS011;33747;49.524;8.390;2024-01-15T13:55:28;14.60;;;7.57;;
7338;SDS011;33747;49.524;8.390;2024-01-15T13:57:54;11.75;;;7.43;;
7338;SDS011;33747;49.524;8.390;2024-01-15T14:00:19;11.98;;;7.63;;
7338;SDS011;33747;49.524;8.390;2024-01-15T14:02:45;14.50;;;7.07;;
7338;SDS011;33747;49.524;8.390;2024-01-15T14:05:11;14.70;;;7.38;;
7338;SDS011;33747;49.524;8.390;2024-01-15T14:07:37;17.02;;;8.40;;
7338;SDS011;33747;49.524;8.390;2024-01-15T14:10:06;13.50;;;8.13;;
7338;SDS011;33747;49.524;8.390;2024-01-15T14:12:33;14.75;;;7.45;;
7338;SDS011;33747;49.524;8.390;2024-01-15T14:14:58;10.05;;;7.05;;
7338;SDS011;33747;49.524;8.390;2024-01-15T14:17:24;14.38;;;7.85;;
7338;SDS011;33747;49.524;8.390;2024-01-15T14:19:49;12.50;;;6.70;;
7338;SDS011;33747;49.524;8.390;2024-01-15T14:22:14;10.43;;;6.80;;
7338;SDS011;33747;49.524;8.390;2024-01-15T14:24:40;17.90;;;7.18;;
7338;SDS011;33747;49.524;8.390;2024-01-15T14:27:05;12.95;;;7.80;;
7338;SDS011;33747;49.524;8.390;2024-01-15T14:29:32;14.13;;;6.85;;
7338;SDS011;33747;49.524;8.390;2024-01-15T14:31:57;13.40;;;7.88;;
7338;SDS011;33747;49.524;8.390;2024-01-15T14:34:24;14.68;;;7.25;;
7338;SDS011;33747;49.524;8.390;2024-01-15T14:36:50;12.98;;;6.45;;
7338;SDS011;33747;49.524;8.390;2024-01-15T14:39:18;11.40;;;7.05;;
7338;SDS011;33747;49.524;8.390;2024-01-15T14:41:44;9.82;;;6.80;;
7338;SDS011;33747;49.524;8.390;2024-01-15T14:44:10;9.85;;;6.85;;
7338;SDS011;33747;49.524;8.390;2024-01-15T14:46:37;9.98;;;6.45;;
7338;SDS011;33747;49.524;8.390;2024-01-15T14:49:02;14.95;;;6.78;;